Altonah, UT

1:47 AM MDT on August 01, 2014 (GMT -0600)
Carbon County (KPUC) Elev 5955 ft | 39.61 °N, 110.75 °W | Change Station

Current weather conditions updated 54 minutes ago

Mostly Cloudy
Mostly Cloudy
62 °F
Feels Like 62 °F
N
8
Wind Variable Wind from NNE

Today is forecast to be nearly the same temperature as yesterday. Afternoon thunderstorms.

Today
High -- | Low -- °F
--% Chance of Precip.
Yesterday
High -- | Low -- °F
Precip. -- in
6:19 AM 8:36 PM
Waxing Crescent, 24% visible
Pressure 30.01 in
Visibility 10.0 miles
Clouds Mostly Cloudy 9500 ft
Dew Point 50 °F
Humidity 65%
Rainfall 0.00 in
Snow Depth Not available.
UV 0 out of 12
Pollen 6.50 out of 12
Air Quality Not available.
Flu Activity Not available.
METAR KPUC 010653Z AUTO 03007KT 10SM BKN095 17/10 A3024 RMK AO2 SLP161 T01670100 403060156

More Conditions Fewer Conditions

Pressure 30.01 in
Visibility 10.0 miles
Clouds Mostly Cloudy 9500 ft
Dew Point 50 °F
Humidity 65%
Rainfall 0.00 in
Snow Depth Not available.
UV 0 out of 12
Pollen 6.50 out of 12
Air Quality Not available.
Flu Activity Not available.
METAR KPUC 010653Z AUTO 03007KT 10SM BKN095 17/10 A3024 RMK AO2 SLP161 T01670100 403060156

More Conditions Fewer Conditions

10-Day Weather Forecast

Almanac

Astronomy

Aug. 01, 2014 Rise Set
Actual Time 6:19 AM MDT 8:36 PM MDT
Civil Twilight 5:48 AM MDT 9:07 PM MDT
Nautical Twilight 5:10 AM MDT 9:44 PM MDT
Astronomical Twilight 4:29 AM MDT 10:25 PM MDT
Moon 11:47 AM MDT 11:21 PM MDT
Length of Visible Light 15h 18m
Length of Day
14h 17m
Tomorrow will be 2m 3s shorter.
Waxing Crescent, 24% of the Moon is Illuminated
Today
Waxing Crescent
Aug 3
First Quarter
Aug 10
Full
Aug 17
Last Quarter
Aug 25
New

Today's Extremes

State Highs State Lows

Community

WunderPhotos

Upload Photos

1,739,522 photos uploaded!

Nearby

Snow Depth

Station Depth Elevation
Lakefork #1 0 in 10100 ft
Rock Creek 0 in 7900 ft
Lakefork Basin 0 in 10900 ft
Mosby Mountain 0 in 9500 ft
Currant Creek 0 in 8000 ft

Earthquake Activity

City Distance Mag. Time & Date
No recent earthquake activity has been reported nearby.
Minimum magnitude displayed is 2.5.

Coastal Water Temperatures

Place Temperature
No Stations Reporting

Nearby Weather Stations

Station Location Temp. Dew Point Humidity Wind Precip. Elev Updated Type
RAWS BLACKTAIL UT, Tabiona, UT 60 °F 47 °F 63% NW  at  7 mph 0.00 in / hr 7311 ft 12:31 AM MDT MADIS
HADS HANNA NEAR DUSCHENE 24NW UT, Tabiona, UT 57 °F 49 °F 75% West  at  6 mph 0.00 in / hr 6745 ft 12:15 AM MDT MADIS

Show More Stations Show Fewer Stations